Time;durP1;ratioP1;P1;durP2;ratioP2;P2;SDS_P1;SDS_P2;PMS_P1;PMS_P2;Temp;Humidity;BMP_temperature;BMP_pressure;BME280_temperature;BME280_humidity;BME280_pressure;Samples;Min_cycle;Max_cycle;Signal;HPM_P1;HPM_P2
2022/04/17 00:00:30;;;;;;;1.20;1.10;;;6.40;98.00;;;;;;6274398;22;20395;-68
2022/04/17 00:02:57;;;;;;;1.40;1.20;;;6.20;98.00;;;;;;6274558;22;20414;-68
2022/04/17 00:05:26;;;;;;;1.20;1.00;;;6.20;98.00;;;;;;6274372;22;20892;-68
2022/04/17 00:07:53;;;;;;;2.03;1.83;;;6.10;98.00;;;;;;6247770;22;20427;-68
2022/04/17 00:10:21;;;;;;;1.20;0.90;;;5.90;98.00;;;;;;6247017;22;20984;-67
2022/04/17 00:12:48;;;;;;;1.83;1.43;;;5.80;98.00;;;;;;6247818;22;20489;-68
2022/04/17 00:15:15;;;;;;;1.40;1.20;;;5.80;98.00;;;;;;6274193;22;20445;-68
2022/04/17 00:17:43;;;;;;;1.20;1.07;;;5.60;98.00;;;;;;6274602;22;20480;-67
2022/04/17 00:20:12;;;;;;;3.20;1.20;;;5.70;98.00;;;;;;6274376;22;20409;-68
2022/04/17 00:22:40;;;;;;;1.30;1.27;;;5.80;98.00;;;;;;6274478;22;20404;-68
2022/04/17 00:25:08;;;;;;;1.33;1.23;;;5.70;98.00;;;;;;6274370;22;20402;-67
2022/04/17 00:27:36;;;;;;;1.80;1.33;;;5.60;98.00;;;;;;6247866;22;20462;-68
2022/04/17 00:30:03;;;;;;;1.50;1.50;;;5.50;98.00;;;;;;6274134;22;20461;-68
2022/04/17 00:32:31;;;;;;;1.30;1.27;;;5.40;98.00;;;;;;6274295;22;20754;-67
2022/04/17 00:34:58;;;;;;;1.20;1.00;;;5.30;98.00;;;;;;6273934;22;20491;-67
2022/04/17 00:37:34;;;;;;;1.20;1.00;;;5.30;98.00;;;;;;6274327;22;20743;-68
2022/04/17 00:40:02;;;;;;;1.40;1.10;;;5.30;98.00;;;;;;6274430;22;20491;-67
2022/04/17 00:42:29;;;;;;;1.40;1.10;;;5.30;98.00;;;;;;6274454;22;20416;-68
2022/04/17 00:44:56;;;;;;;1.47;1.20;;;5.30;98.00;;;;;;6275663;22;20918;-67
2022/04/17 00:47:23;;;;;;;1.40;1.10;;;5.10;98.00;;;;;;6275995;22;20785;-67
2022/04/17 00:49:50;;;;;;;1.20;1.00;;;5.00;98.00;;;;;;6275831;22;20916;-67
2022/04/17 00:52:20;;;;;;;1.20;1.10;;;4.90;98.00;;;;;;6275497;22;20438;-67
2022/04/17 00:54:49;;;;;;;1.20;1.13;;;5.00;98.00;;;;;;6276002;22;20430;-67
2022/04/17 00:57:17;;;;;;;1.20;1.00;;;5.00;98.00;;;;;;6248992;22;20412;-67
2022/04/17 00:59:47;;;;;;;1.20;1.10;;;5.10;98.00;;;;;;6276091;22;20413;-67
2022/04/17 01:02:15;;;;;;;1.60;1.33;;;5.00;98.00;;;;;;6248530;22;20451;-67
2022/04/17 01:04:44;;;;;;;1.20;1.00;;;5.00;98.00;;;;;;6248937;22;20802;-67
2022/04/17 01:07:11;;;;;;;1.50;1.20;;;4.90;98.00;;;;;;6275466;22;20424;-67
2022/04/17 01:09:39;;;;;;;2.57;1.53;;;4.60;98.00;;;;;;6275984;22;20501;-67
2022/04/17 01:12:08;;;;;;;1.37;1.30;;;4.60;98.00;;;;;;6275728;22;20488;-67
2022/04/17 01:14:40;;;;;;;3.13;1.77;;;4.50;98.00;;;;;;6275561;22;20458;-68
2022/04/17 01:17:09;;;;;;;1.20;1.10;;;4.70;98.00;;;;;;6275465;22;20403;-67
2022/04/17 01:19:39;;;;;;;1.50;1.30;;;4.70;98.00;;;;;;6275433;22;20420;-67
2022/04/17 01:22:08;;;;;;;1.40;1.10;;;4.50;98.00;;;;;;6275843;22;20434;-67
2022/04/17 01:27:20;;;;;;;1.47;1.10;;;4.50;98.00;;;;;;6275608;22;20866;-67
2022/04/17 01:29:50;;;;;;;1.30;1.13;;;4.70;98.00;;;;;;6275652;22;20592;-67
2022/04/17 01:32:21;;;;;;;1.20;1.00;;;4.60;98.00;;;;;;6275973;22;20450;-67
2022/04/17 01:34:47;;;;;;;1.47;1.30;;;4.40;98.00;;;;;;6276195;22;20482;-67
2022/04/17 01:37:17;;;;;;;1.20;1.10;;;4.40;98.00;;;;;;6275038;22;20917;-67
2022/04/17 01:39:44;;;;;;;1.30;1.10;;;4.40;98.00;;;;;;6274904;22;20916;-67
2022/04/17 01:42:13;;;;;;;1.20;1.00;;;4.30;98.00;;;;;;6275371;22;20533;-67
2022/04/17 01:44:40;;;;;;;1.20;1.00;;;4.40;98.00;;;;;;6275248;22;20432;-67
2022/04/17 01:47:07;;;;;;;1.70;1.40;;;4.40;98.00;;;;;;6275071;22;20979;-67
2022/04/17 01:49:34;;;;;;;1.20;1.00;;;4.40;98.00;;;;;;6275184;22;20465;-67
2022/04/17 01:52:01;;;;;;;1.40;1.23;;;4.40;98.00;;;;;;6275391;22;20427;-67
2022/04/17 01:54:32;;;;;;;1.20;1.00;;;4.30;98.00;;;;;;6275281;22;20728;-67
2022/04/17 01:56:58;;;;;;;1.20;1.00;;;4.40;98.00;;;;;;6275894;22;20407;-67
2022/04/17 01:59:25;;;;;;;5.00;1.60;;;4.40;98.00;;;;;;6276331;22;20766;-67
2022/04/17 02:01:53;;;;;;;1.30;1.10;;;4.50;98.00;;;;;;6275084;22;20494;-66
2022/04/17 02:04:20;;;;;;;1.20;1.03;;;4.70;98.00;;;;;;6275356;22;20396;-67
2022/04/17 02:06:47;;;;;;;1.57;1.30;;;4.50;98.00;;;;;;6276233;22;20906;-67
2022/04/17 02:09:16;;;;;;;1.47;1.20;;;4.60;98.00;;;;;;6275945;22;20716;-67
2022/04/17 02:11:45;;;;;;;1.20;1.00;;;4.50;98.00;;;;;;6276541;22;20493;-67
2022/04/17 02:14:13;;;;;;;1.27;1.07;;;4.40;98.00;;;;;;6275723;22;20433;-67
2022/04/17 02:16:41;;;;;;;1.20;1.10;;;4.40;98.00;;;;;;6275315;22;20419;-66
2022/04/17 02:19:09;;;;;;;1.80;1.30;;;4.40;98.00;;;;;;6274920;22;20420;-67
2022/04/17 02:21:36;;;;;;;1.20;1.00;;;4.40;98.00;;;;;;6274745;22;20447;-66
2022/04/17 02:24:03;;;;;;;1.20;1.00;;;4.30;98.00;;;;;;6275158;22;20927;-67
2022/04/17 02:26:31;;;;;;;1.20;0.90;;;4.30;98.00;;;;;;6275141;22;20737;-67
2022/04/17 02:29:00;;;;;;;2.70;1.30;;;4.20;98.00;;;;;;6274897;22;20444;-67
2022/04/17 02:31:28;;;;;;;1.23;1.03;;;4.30;98.00;;;;;;6275046;22;20423;-67
2022/04/17 02:33:57;;;;;;;1.20;1.00;;;4.30;98.00;;;;;;6275084;22;20404;-67
2022/04/17 02:36:25;;;;;;;2.17;1.53;;;4.30;98.00;;;;;;6275110;22;20456;-67
2022/04/17 02:38:53;;;;;;;1.40;1.20;;;4.10;98.00;;;;;;6270539;22;20423;-67
2022/04/17 02:41:20;;;;;;;1.87;1.03;;;4.10;98.00;;;;;;6274807;22;20529;-68
2022/04/17 02:43:47;;;;;;;1.20;1.00;;;4.20;98.00;;;;;;6274726;22;20423;-67
2022/04/17 02:47:42;;;;;;;1.97;1.50;;;4.20;98.00;;;;;;6274604;22;20913;-67
2022/04/17 02:49:03;;;;;;;1.20;1.00;;;4.10;98.00;;;;;;6274424;22;20410;-67
2022/04/17 02:51:31;;;;;;;1.20;1.00;;;4.10;98.00;;;;;;6274715;22;20468;-67
2022/04/17 02:53:58;;;;;;;1.20;1.00;;;4.00;98.00;;;;;;6275154;22;20523;-67
2022/04/17 02:56:24;;;;;;;1.20;1.07;;;4.00;98.00;;;;;;6248177;22;20403;-67
2022/04/17 02:58:54;;;;;;;1.30;1.10;;;4.00;98.00;;;;;;6274471;22;20451;-67
2022/04/17 03:06:52;;;;;;;1.20;1.00;;;4.10;98.00;;;;;;6274477;22;20388;-67
2022/04/17 03:09:19;;;;;;;1.73;1.47;;;3.90;98.00;;;;;;6274758;22;20395;-67
2022/04/17 03:11:46;;;;;;;1.40;1.10;;;4.10;98.00;;;;;;6274423;22;20425;-67
2022/04/17 03:14:14;;;;;;;1.20;1.00;;;3.90;98.00;;;;;;6247786;22;20393;-67
2022/04/17 03:16:42;;;;;;;1.20;1.20;;;3.80;98.00;;;;;;6273942;22;20759;-67
2022/04/17 03:19:09;;;;;;;1.60;1.30;;;3.80;98.00;;;;;;6274660;22;20475;-67
2022/04/17 03:21:36;;;;;;;1.40;1.10;;;3.70;98.00;;;;;;6274059;22;20670;-67
2022/04/17 03:24:03;;;;;;;4.20;2.80;;;3.60;98.00;;;;;;6274545;22;20740;-67
2022/04/17 03:26:30;;;;;;;1.20;1.00;;;3.60;98.00;;;;;;6274406;22;20788;-67
2022/04/17 03:28:59;;;;;;;1.20;1.00;;;3.70;98.00;;;;;;6274469;22;20418;-67
2022/04/17 03:31:26;;;;;;;1.20;1.10;;;3.60;98.00;;;;;;6248128;22;20787;-67
2022/04/17 03:33:55;;;;;;;1.87;1.20;;;3.60;98.00;;;;;;6274520;22;20738;-67
2022/04/17 03:36:22;;;;;;;1.40;1.40;;;3.40;98.00;;;;;;6274408;22;20448;-66
2022/04/17 03:38:48;;;;;;;1.20;0.97;;;3.40;98.00;;;;;;6274514;22;20413;-66
2022/04/17 03:41:15;;;;;;;1.20;1.20;;;3.30;98.00;;;;;;6274413;22;20792;-66
2022/04/17 03:43:43;;;;;;;1.20;1.10;;;3.30;98.00;;;;;;6247510;22;20525;-66
2022/04/17 03:46:10;;;;;;;1.20;1.10;;;3.30;98.00;;;;;;6247714;22;20414;-66
2022/04/17 03:48:37;;;;;;;1.40;1.30;;;3.30;98.00;;;;;;6274300;22;20480;-66
2022/04/17 03:51:05;;;;;;;1.30;1.10;;;3.40;98.00;;;;;;6274174;22;20453;-66
2022/04/17 03:53:32;;;;;;;6.60;2.43;;;3.20;98.00;;;;;;6274569;22;20430;-66
2022/04/17 03:55:59;;;;;;;1.90;1.33;;;3.20;98.00;;;;;;6274384;22;20397;-66
2022/04/17 03:58:26;;;;;;;1.30;1.10;;;3.10;98.00;;;;;;6274034;22;20447;-66
2022/04/17 04:00:53;;;;;;;1.20;1.03;;;3.10;98.00;;;;;;6274027;22;20394;-66
2022/04/17 04:03:20;;;;;;;1.47;1.27;;;3.10;98.00;;;;;;6274272;22;20437;-66
2022/04/17 04:05:47;;;;;;;1.20;1.00;;;3.20;98.00;;;;;;6274235;22;20438;-66
2022/04/17 04:08:17;;;;;;;1.53;1.33;;;3.10;98.00;;;;;;6247173;22;20404;-66
2022/04/17 04:10:44;;;;;;;1.40;1.10;;;3.10;98.00;;;;;;6274315;22;20463;-66
2022/04/17 04:13:11;;;;;;;1.50;1.10;;;3.10;98.00;;;;;;6247616;22;20451;-66
2022/04/17 04:15:38;;;;;;;1.40;1.27;;;3.10;98.00;;;;;;6274033;22;20397;-66
2022/04/17 04:18:05;;;;;;;1.20;1.00;;;3.10;98.00;;;;;;6275211;22;20901;-66
2022/04/17 04:20:32;;;;;;;2.27;1.53;;;3.00;98.00;;;;;;6249590;22;20476;-66
2022/04/17 04:22:59;;;;;;;1.20;1.00;;;3.00;98.00;;;;;;6276394;22;20502;-66
2022/04/17 04:25:28;;;;;;;2.63;1.87;;;3.10;98.00;;;;;;6250330;22;20449;-66
2022/04/17 04:30:40;;;;;;;1.80;1.63;;;3.30;98.00;;;;;;6276202;22;20710;-66
2022/04/17 04:33:07;;;;;;;1.40;1.30;;;3.20;98.00;;;;;;6276342;22;20474;-66
2022/04/17 04:35:34;;;;;;;2.47;1.40;;;3.20;98.00;;;;;;6276019;22;20981;-66
2022/04/17 04:38:01;;;;;;;1.80;1.33;;;3.40;98.00;;;;;;6275500;22;20414;-66
2022/04/17 04:40:35;;;;;;;1.20;1.00;;;3.50;98.00;;;;;;6249494;22;20705;-66
2022/04/17 04:43:03;;;;;;;1.20;1.10;;;3.50;98.00;;;;;;6275527;22;20457;-66
2022/04/17 04:49:29;;;;;;;1.33;1.00;;;3.40;98.00;;;;;;6275972;22;20441;-66
2022/04/17 04:51:02;;;;;;;1.40;1.30;;;3.40;98.00;;;;;;6275236;22;20510;-66
2022/04/17 04:53:29;;;;;;;1.20;0.93;;;3.30;98.00;;;;;;6276041;22;20488;-66
2022/04/17 04:55:58;;;;;;;1.20;1.10;;;3.10;98.00;;;;;;6276060;22;20412;-66
2022/04/17 04:58:25;;;;;;;1.20;1.10;;;2.70;98.00;;;;;;6276105;22;20522;-66
2022/04/17 05:00:52;;;;;;;1.40;1.10;;;2.70;98.00;;;;;;6276024;22;20405;-66
2022/04/17 05:03:19;;;;;;;2.03;1.67;;;2.90;98.00;;;;;;6249079;22;20503;-66
2022/04/17 05:05:47;;;;;;;1.50;1.40;;;3.00;98.00;;;;;;6275702;22;20512;-66
2022/04/17 05:08:14;;;;;;;1.20;1.10;;;2.90;98.00;;;;;;6275986;22;20406;-66
2022/04/17 05:10:41;;;;;;;1.20;1.00;;;2.90;98.00;;;;;;6275744;22;20412;-66
2022/04/17 05:13:09;;;;;;;1.20;1.00;;;2.90;98.00;;;;;;6275964;22;20398;-66
2022/04/17 05:15:36;;;;;;;1.20;1.00;;;3.10;98.00;;;;;;6275317;22;20912;-65
2022/04/17 05:18:04;;;;;;;1.20;1.00;;;3.10;98.00;;;;;;6275232;22;20969;-66
2022/04/17 05:20:33;;;;;;;1.60;1.30;;;3.00;98.00;;;;;;6275795;22;20657;-66
2022/04/17 05:23:15;;;;;;;1.30;1.10;;;3.00;98.00;;;;;;6275438;22;20564;-66
2022/04/17 05:25:42;;;;;;;1.20;1.00;;;3.00;98.00;;;;;;6275768;22;20400;-66
2022/04/17 05:28:10;;;;;;;1.30;1.00;;;3.10;98.00;;;;;;6275442;22;20433;-66
2022/04/17 05:30:37;;;;;;;1.20;1.00;;;3.10;98.00;;;;;;6275647;22;20409;-65
2022/04/17 05:33:04;;;;;;;1.20;1.00;;;3.20;98.00;;;;;;6275226;22;20459;-66
2022/04/17 05:35:31;;;;;;;1.70;1.33;;;3.10;98.00;;;;;;6275503;22;20412;-66
2022/04/17 05:37:58;;;;;;;1.20;1.00;;;3.10;98.00;;;;;;6275217;22;20413;-66
2022/04/17 05:40:28;;;;;;;1.30;1.23;;;3.20;98.00;;;;;;6275277;22;20448;-66
2022/04/17 05:42:56;;;;;;;1.30;1.10;;;3.00;98.00;;;;;;6274891;22;20994;-66
2022/04/17 05:45:25;;;;;;;1.20;1.00;;;3.00;98.00;;;;;;6275625;22;20426;-66
2022/04/17 05:47:52;;;;;;;1.20;1.00;;;3.10;98.00;;;;;;6274594;22;20421;-66
2022/04/17 05:50:19;;;;;;;1.20;1.00;;;3.30;98.00;;;;;;6275453;22;20408;-66
2022/04/17 05:52:47;;;;;;;1.50;1.40;;;3.40;98.00;;;;;;6275349;22;20410;-66
2022/04/17 05:55:14;;;;;;;2.07;1.30;;;3.50;98.00;;;;;;6275516;22;20397;-66
2022/04/17 05:57:41;;;;;;;1.70;1.60;;;3.60;98.00;;;;;;6274867;22;20932;-66
2022/04/17 06:00:11;;;;;;;1.77;1.10;;;3.60;98.00;;;;;;6275402;22;20716;-66
2022/04/17 06:02:40;;;;;;;1.20;1.10;;;3.70;98.00;;;;;;6275082;22;20525;-66
2022/04/17 06:05:07;;;;;;;1.50;1.20;;;3.90;98.00;;;;;;6275328;22;20398;-66
2022/04/17 06:07:35;;;;;;;1.40;1.30;;;4.10;98.00;;;;;;6274984;22;20464;-66
2022/04/17 06:10:03;;;;;;;1.30;1.10;;;4.40;98.00;;;;;;6275286;22;20426;-67
2022/04/17 06:12:30;;;;;;;1.20;1.00;;;4.60;98.00;;;;;;6274933;22;20878;-67
2022/04/17 06:14:58;;;;;;;1.60;1.40;;;4.80;98.00;;;;;;6275358;22;20759;-66
2022/04/17 06:17:25;;;;;;;1.50;1.50;;;5.00;98.00;;;;;;6275545;22;20998;-67
2022/04/17 06:19:53;;;;;;;1.70;1.37;;;5.20;98.00;;;;;;6275811;22;20403;-67
2022/04/17 06:22:20;;;;;;;1.93;1.53;;;5.40;98.00;;;;;;6274640;22;21004;-67
2022/04/17 06:24:47;;;;;;;1.30;1.30;;;5.50;98.00;;;;;;6274847;22;20486;-67
2022/04/17 06:27:14;;;;;;;1.37;1.10;;;5.70;98.00;;;;;;6274691;22;21024;-67
2022/04/17 06:29:41;;;;;;;1.20;1.03;;;5.70;98.00;;;;;;6274725;22;20412;-67
2022/04/17 06:32:09;;;;;;;1.23;1.03;;;5.90;98.00;;;;;;6274892;22;20450;-67
2022/04/17 06:34:36;;;;;;;2.10;1.20;;;6.00;98.00;;;;;;6274673;22;20414;-67
2022/04/17 06:37:04;;;;;;;1.93;1.67;;;6.20;98.00;;;;;;6247716;22;20415;-67
2022/04/17 06:39:33;;;;;;;1.30;1.30;;;6.30;98.00;;;;;;6274491;22;20415;-67
2022/04/17 06:42:00;;;;;;;1.40;1.30;;;6.40;98.00;;;;;;6274606;22;20416;-67
2022/04/17 06:44:26;;;;;;;2.20;1.37;;;6.60;98.00;;;;;;6274351;22;21144;-67
2022/04/17 06:46:53;;;;;;;1.33;1.17;;;6.70;98.00;;;;;;6274757;22;20413;-67
2022/04/17 06:49:20;;;;;;;2.20;1.43;;;6.80;97.80;;;;;;6274542;22;20470;-67
2022/04/17 06:51:47;;;;;;;2.17;1.10;;;6.90;97.10;;;;;;6248054;22;20899;-67
2022/04/17 06:54:16;;;;;;;1.20;1.00;;;7.00;97.30;;;;;;6274870;22;20444;-67
2022/04/17 06:56:45;;;;;;;1.67;1.23;;;7.10;97.20;;;;;;6274937;22;20722;-67
2022/04/17 06:59:12;;;;;;;1.20;1.00;;;7.20;96.60;;;;;;6248550;22;20398;-67
2022/04/17 07:01:39;;;;;;;1.30;1.10;;;7.10;96.80;;;;;;6274676;22;20930;-67
2022/04/17 07:04:06;;;;;;;1.20;1.03;;;7.10;96.70;;;;;;6274340;22;20440;-67
2022/04/17 07:06:35;;;;;;;1.60;1.40;;;7.30;96.70;;;;;;6274549;22;20414;-67
2022/04/17 07:09:02;;;;;;;1.40;1.27;;;7.40;96.80;;;;;;6275174;22;20397;-68
2022/04/17 07:11:30;;;;;;;2.40;1.87;;;7.60;95.90;;;;;;6274897;22;20404;-67
2022/04/17 07:13:57;;;;;;;1.20;1.00;;;7.70;93.00;;;;;;6274853;22;20392;-67
2022/04/17 07:16:24;;;;;;;1.20;1.00;;;7.90;93.60;;;;;;6274813;22;20411;-68
2022/04/17 07:18:53;;;;;;;1.40;1.20;;;8.00;91.60;;;;;;6274612;22;20426;-68
2022/04/17 07:21:20;;;;;;;1.50;1.40;;;8.20;92.70;;;;;;6275115;22;20422;-68
2022/04/17 07:23:47;;;;;;;1.30;1.17;;;8.30;91.30;;;;;;6274542;22;20467;-68
2022/04/17 07:26:15;;;;;;;1.20;1.20;;;8.50;90.90;;;;;;6274354;22;20409;-68
2022/04/17 07:28:46;;;;;;;1.30;1.20;;;8.50;89.50;;;;;;6247656;22;20469;-68
2022/04/17 07:31:14;;;;;;;3.70;1.33;;;8.70;90.20;;;;;;6275717;22;20397;-68
2022/04/17 07:33:41;;;;;;;1.20;1.10;;;8.80;89.90;;;;;;6274726;22;20496;-68
2022/04/17 07:36:09;;;;;;;1.20;1.00;;;9.00;87.60;;;;;;6248279;22;20430;-68
2022/04/17 07:38:36;;;;;;;1.50;1.40;;;9.20;89.50;;;;;;6274457;22;20896;-68
2022/04/17 07:41:03;;;;;;;1.43;1.40;;;9.30;88.40;;;;;;6274899;22;20416;-68
2022/04/17 07:43:30;;;;;;;1.37;1.30;;;9.40;87.90;;;;;;6273961;22;20460;-68
2022/04/17 07:45:58;;;;;;;1.30;1.00;;;9.50;87.10;;;;;;6274472;22;20403;-68
2022/04/17 07:48:25;;;;;;;1.87;1.30;;;9.60;86.50;;;;;;6274631;22;20424;-68
2022/04/17 07:50:54;;;;;;;1.73;1.30;;;9.60;86.30;;;;;;6274868;22;20437;-68
2022/04/17 07:53:21;;;;;;;3.57;1.50;;;9.80;86.80;;;;;;6273844;22;20427;-68
2022/04/17 07:55:48;;;;;;;1.40;1.37;;;9.90;86.00;;;;;;6274065;22;20413;-68
2022/04/17 07:58:24;;;;;;;1.20;1.10;;;10.10;84.70;;;;;;6247198;22;20419;-67
2022/04/17 08:00:57;;;;;;;2.23;1.30;;;10.20;84.90;;;;;;6274508;22;20889;-68
2022/04/17 08:03:45;;;;;;;1.50;1.10;;;10.20;83.30;;;;;;6274347;22;20505;-68
2022/04/17 08:06:15;;;;;;;3.03;1.50;;;10.30;83.00;;;;;;6274119;22;20399;-68
2022/04/17 08:08:42;;;;;;;1.20;1.10;;;10.40;82.40;;;;;;6248339;22;20475;-68
2022/04/17 08:11:13;;;;;;;1.40;1.30;;;10.60;84.20;;;;;;6274413;22;20404;-68
2022/04/17 08:13:42;;;;;;;1.30;1.10;;;10.80;84.70;;;;;;6247373;22;20762;-68
2022/04/17 08:16:10;;;;;;;1.20;1.03;;;10.90;82.30;;;;;;6274229;22;20412;-68
2022/04/17 08:18:38;;;;;;;2.07;1.10;;;11.10;84.10;;;;;;6274007;22;20914;-68
2022/04/17 08:21:05;;;;;;;1.30;1.10;;;11.20;82.50;;;;;;6273775;22;20414;-68
2022/04/17 08:23:32;;;;;;;1.20;1.10;;;11.20;81.30;;;;;;6274346;22;20477;-68
2022/04/17 08:25:59;;;;;;;1.30;1.10;;;11.30;81.40;;;;;;6273611;22;20511;-67
2022/04/17 08:28:27;;;;;;;1.57;1.20;;;11.40;81.60;;;;;;6245664;22;20467;-69
2022/04/17 08:30:55;;;;;;;1.53;1.50;;;11.40;79.00;;;;;;6272448;22;20435;-69
2022/04/17 08:33:21;;;;;;;1.20;1.20;;;11.60;80.30;;;;;;6273149;22;20443;-69
2022/04/17 08:35:50;;;;;;;1.20;1.07;;;11.70;78.20;;;;;;6273102;22;20452;-69
2022/04/17 08:38:19;;;;;;;1.43;1.20;;;11.90;78.60;;;;;;6273312;22;20462;-70
2022/04/17 08:40:58;;;;;;;1.77;1.33;;;12.10;77.70;;;;;;6246132;22;20397;-68
2022/04/17 08:43:26;;;;;;;1.20;1.07;;;12.20;76.00;;;;;;6272611;22;20498;-69
2022/04/17 08:45:55;;;;;;;1.60;1.30;;;12.30;78.50;;;;;;6272893;22;20480;-68
2022/04/17 08:48:23;;;;;;;1.93;1.43;;;12.40;78.40;;;;;;6273005;22;20419;-68
2022/04/17 08:50:53;;;;;;;1.33;1.30;;;12.50;77.40;;;;;;6272212;22;20413;-68
2022/04/17 08:53:21;;;;;;;1.43;1.20;;;12.70;76.40;;;;;;6273428;22;20440;-69
2022/04/17 08:55:50;;;;;;;1.20;1.00;;;12.70;75.00;;;;;;6272981;22;20404;-69
2022/04/17 08:58:17;;;;;;;1.47;1.03;;;12.90;76.00;;;;;;6273186;22;20399;-69
2022/04/17 09:00:44;;;;;;;1.73;1.20;;;13.00;73.70;;;;;;6272998;22;20404;-68
2022/04/17 09:03:13;;;;;;;1.20;1.00;;;13.10;74.90;;;;;;6246591;22;20431;-67
2022/04/17 09:05:39;;;;;;;3.87;1.20;;;13.20;74.40;;;;;;6274897;22;20722;-68
2022/04/17 09:08:16;;;;;;;2.13;1.20;;;13.40;73.80;;;;;;6274336;22;20465;-68
2022/04/17 09:10:55;;;;;;;1.60;1.20;;;13.50;72.20;;;;;;6274989;22;20405;-68
2022/04/17 09:13:33;;;;;;;1.30;1.10;;;13.60;74.50;;;;;;6275096;22;20403;-68
2022/04/17 09:16:01;;;;;;;1.83;1.37;;;13.70;72.80;;;;;;6248372;22;20402;-68
2022/04/17 09:18:29;;;;;;;1.47;1.37;;;13.90;73.90;;;;;;6274700;22;20728;-68
2022/04/17 09:20:57;;;;;;;1.80;1.30;;;14.00;70.60;;;;;;6274208;22;20936;-68
2022/04/17 09:23:40;;;;;;;1.20;1.00;;;14.00;71.00;;;;;;6274783;22;20484;-68
2022/04/17 09:26:08;;;;;;;1.50;1.20;;;14.10;71.00;;;;;;6274548;22;20397;-68
2022/04/17 09:28:35;;;;;;;1.40;1.20;;;14.10;69.10;;;;;;6274218;22;20414;-67
2022/04/17 09:31:10;;;;;;;1.20;1.20;;;14.30;71.90;;;;;;6274354;22;20414;-67
2022/04/17 09:33:39;;;;;;;1.20;1.10;;;14.40;69.10;;;;;;6274674;22;20435;-68
2022/04/17 09:36:06;;;;;;;1.97;1.50;;;14.60;72.40;;;;;;6274422;22;20789;-67
2022/04/17 09:38:35;;;;;;;1.20;1.07;;;14.70;70.50;;;;;;6274503;22;20746;-68
2022/04/17 09:41:06;;;;;;;1.30;1.10;;;14.80;73.00;;;;;;6274363;22;20403;-68
2022/04/17 09:43:35;;;;;;;1.40;1.30;;;15.00;72.10;;;;;;6274481;22;20656;-68
2022/04/17 09:46:04;;;;;;;1.67;1.10;;;15.00;70.40;;;;;;6274496;22;20741;-67
2022/04/17 09:48:32;;;;;;;1.80;1.80;;;15.10;70.60;;;;;;6274498;22;20406;-68
2022/04/17 09:51:02;;;;;;;1.47;1.27;;;15.20;71.60;;;;;;6273922;22;20459;-69
2022/04/17 09:53:38;;;;;;;1.50;1.30;;;15.60;78.90;;;;;;6274456;22;20481;-68
2022/04/17 09:56:10;;;;;;;1.37;1.20;;;16.10;72.10;;;;;;6274466;22;20486;-67
2022/04/17 09:58:39;;;;;;;1.53;1.20;;;16.30;68.30;;;;;;6273902;22;20408;-68
2022/04/17 10:01:07;;;;;;;1.53;1.10;;;16.20;67.40;;;;;;6274159;22;20397;-68
2022/04/17 10:03:38;;;;;;;3.50;1.37;;;16.00;68.20;;;;;;6274714;22;20829;-68
2022/04/17 10:06:06;;;;;;;1.20;1.20;;;16.00;68.10;;;;;;6275042;22;20457;-68
2022/04/17 10:08:33;;;;;;;1.30;1.20;;;16.10;67.50;;;;;;6274076;22;20422;-68
2022/04/17 10:11:02;;;;;;;1.43;1.13;;;16.20;67.40;;;;;;6274713;22;20482;-71
2022/04/17 10:13:32;;;;;;;1.30;1.30;;;16.30;68.30;;;;;;6274048;22;20400;-70
2022/04/17 10:16:00;;;;;;;1.50;1.13;;;16.40;66.50;;;;;;6274060;22;20964;-69
2022/04/17 10:18:33;;;;;;;1.30;1.20;;;16.60;71.00;;;;;;6274120;22;20428;-68
2022/04/17 10:21:00;;;;;;;1.40;1.10;;;16.70;65.30;;;;;;6274068;22;20708;-68
2022/04/17 10:23:29;;;;;;;1.40;1.30;;;16.80;66.30;;;;;;6274119;22;20407;-68
2022/04/17 10:25:58;;;;;;;1.30;1.20;;;16.80;64.90;;;;;;6246674;22;20945;-69
2022/04/17 10:28:33;;;;;;;1.27;1.13;;;16.90;65.80;;;;;;6273573;22;20786;-68
2022/04/17 10:31:16;;;;;;;1.30;1.20;;;16.90;64.50;;;;;;6273994;22;20783;-69
2022/04/17 10:34:09;;;;;;;1.87;1.57;;;17.00;65.80;;;;;;6274147;22;20393;-69
2022/04/17 10:36:51;;;;;;;1.80;1.47;;;17.10;65.00;;;;;;6273760;22;20409;-69
2022/04/17 10:39:21;;;;;;;1.20;1.00;;;17.10;63.50;;;;;;6274636;22;20401;-69
2022/04/17 10:41:52;;;;;;;1.30;1.20;;;17.30;64.90;;;;;;6274054;22;20450;-69
2022/04/17 10:44:21;;;;;;;1.90;1.30;;;17.40;63.70;;;;;;6273902;22;20502;-69
2022/04/17 10:46:51;;;;;;;1.60;1.33;;;17.50;64.70;;;;;;6247181;22;20397;-69
2022/04/17 10:49:19;;;;;;;1.50;1.30;;;17.60;64.10;;;;;;6272935;22;20401;-69
2022/04/17 10:51:54;;;;;;;1.63;1.20;;;17.60;64.50;;;;;;6274068;22;20485;-68
2022/04/17 10:54:21;;;;;;;1.40;1.40;;;17.70;62.80;;;;;;6273665;22;20753;-69
2022/04/17 10:57:06;;;;;;;1.53;1.20;;;17.80;61.90;;;;;;6273588;22;20452;-69
2022/04/17 10:59:36;;;;;;;1.33;1.23;;;17.90;59.90;;;;;;6273705;22;20482;-69
2022/04/17 11:02:05;;;;;;;1.73;1.43;;;18.10;60.70;;;;;;6273646;22;20856;-69
2022/04/17 11:04:39;;;;;;;1.47;1.40;;;18.30;62.40;;;;;;6273503;22;20447;-69
2022/04/17 11:07:26;;;;;;;1.20;1.10;;;18.40;63.80;;;;;;6273597;22;20485;-69
2022/04/17 11:10:23;;;;;;;1.20;1.20;;;18.60;63.50;;;;;;6273562;22;20401;-69
2022/04/17 11:12:55;;;;;;;1.77;1.60;;;18.70;62.10;;;;;;6273233;22;20407;-69
2022/04/17 11:15:29;;;;;;;1.63;1.30;;;18.90;63.40;;;;;;6273624;22;20846;-69
2022/04/17 11:18:01;;;;;;;1.97;1.40;;;19.00;61.20;;;;;;6273232;22;20459;-69
2022/04/17 11:20:30;;;;;;;1.40;1.20;;;19.10;61.60;;;;;;6273582;22;20519;-69
2022/04/17 11:22:57;;;;;;;3.30;2.23;;;19.30;60.70;;;;;;6273331;22;20398;-69
2022/04/17 11:25:28;;;;;;;2.07;1.53;;;19.30;60.20;;;;;;6273585;22;20441;-69
2022/04/17 11:27:55;;;;;;;1.60;1.60;;;19.40;62.80;;;;;;6273483;22;20397;-69
2022/04/17 11:30:36;;;;;;;2.07;1.30;;;19.50;60.60;;;;;;6273412;22;20766;-69
2022/04/17 11:33:06;;;;;;;2.23;1.37;;;19.60;62.70;;;;;;6246438;22;20916;-69
2022/04/17 11:35:33;;;;;;;1.50;1.40;;;19.80;62.30;;;;;;6273210;22;20411;-71
2022/04/17 11:38:07;;;;;;;3.67;1.40;;;19.90;60.70;;;;;;6246672;22;20759;-72
2022/04/17 11:40:36;;;;;;;1.57;1.20;;;20.00;60.40;;;;;;6246992;22;20427;-67
2022/04/17 11:43:18;;;;;;;1.37;1.30;;;20.10;58.60;;;;;;6273862;22;20958;-69
2022/04/17 11:45:48;;;;;;;1.30;1.20;;;20.10;60.60;;;;;;6274230;22;20424;-69
2022/04/17 11:48:18;;;;;;;1.53;1.50;;;20.20;59.80;;;;;;6274012;22;20880;-69
2022/04/17 11:50:45;;;;;;;2.17;1.33;;;20.50;59.90;;;;;;6274191;22;20417;-69
2022/04/17 11:53:14;;;;;;;1.60;1.37;;;20.70;57.00;;;;;;6273989;22;20476;-69
2022/04/17 11:55:43;;;;;;;1.50;1.30;;;20.90;58.20;;;;;;6274327;22;20937;-69
2022/04/17 11:58:11;;;;;;;2.20;1.60;;;21.10;58.70;;;;;;6284010;22;20419;-69
2022/04/17 12:00:39;;;;;;;1.60;1.30;;;21.20;58.80;;;;;;6274238;22;20422;-68
2022/04/17 12:03:09;;;;;;;1.60;1.40;;;21.30;57.80;;;;;;6274013;22;20416;-68
2022/04/17 12:05:38;;;;;;;1.50;1.40;;;21.30;59.90;;;;;;6274273;22;20428;-68
2022/04/17 12:08:10;;;;;;;3.53;1.97;;;21.50;57.70;;;;;;6273841;22;20416;-68
2022/04/17 12:10:38;;;;;;;1.30;1.10;;;21.50;56.40;;;;;;6274414;22;20476;-68
2022/04/17 12:13:26;;;;;;;1.30;1.20;;;21.50;58.00;;;;;;6246754;22;20425;-68
2022/04/17 12:16:00;;;;;;;1.40;1.27;;;21.60;57.40;;;;;;6261376;22;20421;-68
2022/04/17 12:18:29;;;;;;;1.57;1.53;;;21.60;57.10;;;;;;6222661;22;20446;-68
2022/04/17 12:20:59;;;;;;;1.70;1.33;;;21.50;57.40;;;;;;6274394;22;20422;-68
2022/04/17 12:23:29;;;;;;;1.40;1.30;;;21.60;57.30;;;;;;6274345;22;20905;-68
2022/04/17 12:26:00;;;;;;;1.43;1.27;;;21.60;55.70;;;;;;6274234;22;20953;-68
2022/04/17 12:28:27;;;;;;;1.50;1.23;;;21.50;55.70;;;;;;6273989;22;20455;-68
2022/04/17 12:30:54;;;;;;;1.77;1.50;;;21.40;56.30;;;;;;6274379;22;20409;-68
2022/04/17 12:33:23;;;;;;;1.67;1.47;;;21.60;55.60;;;;;;6273816;22;20413;-68
2022/04/17 12:36:07;;;;;;;1.30;1.20;;;21.70;55.80;;;;;;6274327;22;20491;-68
2022/04/17 12:38:35;;;;;;;2.37;1.60;;;22.00;56.30;;;;;;6270657;22;20930;-68
2022/04/17 12:41:02;;;;;;;1.70;1.43;;;22.10;55.30;;;;;;6276298;22;20726;-68
2022/04/17 12:43:31;;;;;;;1.40;1.27;;;22.20;55.40;;;;;;6248960;22;20420;-68
2022/04/17 12:46:00;;;;;;;1.50;1.37;;;22.50;56.50;;;;;;6275728;22;20960;-69
2022/04/17 12:48:29;;;;;;;1.90;1.60;;;22.70;54.80;;;;;;6276088;22;20762;-69
2022/04/17 12:51:00;;;;;;;2.30;1.70;;;22.70;52.70;;;;;;6276570;22;20400;-69
2022/04/17 12:53:36;;;;;;;2.33;1.33;;;22.80;53.90;;;;;;6276025;22;20491;-69
2022/04/17 12:56:03;;;;;;;1.43;1.30;;;22.80;53.90;;;;;;6275687;22;20404;-69
2022/04/17 12:58:45;;;;;;;1.47;1.33;;;22.60;53.60;;;;;;6275698;22;20436;-69
2022/04/17 13:01:20;;;;;;;2.13;1.63;;;22.60;53.50;;;;;;6275858;22;20393;-69
2022/04/17 13:03:49;;;;;;;1.70;1.40;;;22.30;53.50;;;;;;6276089;22;20406;-69
2022/04/17 13:06:21;;;;;;;1.87;1.40;;;22.30;54.60;;;;;;6248673;22;20512;-69
2022/04/17 13:09:12;;;;;;;2.47;1.50;;;22.60;51.50;;;;;;6276018;22;20461;-69
2022/04/17 13:11:42;;;;;;;1.60;1.60;;;22.80;53.40;;;;;;6275990;22;20405;-69
2022/04/17 13:14:09;;;;;;;1.87;1.33;;;22.90;52.50;;;;;;6276366;22;20416;-69
2022/04/17 13:16:48;;;;;;;1.47;1.30;;;22.70;52.60;;;;;;6275872;22;20439;-69